createdAt,value
2023-02-11T00:01:12.168Z,6.22
2023-02-11T00:03:39.503Z,5.90
2023-02-11T00:06:11.746Z,5.85
2023-02-11T00:08:39.275Z,5.28
2023-02-11T00:11:06.068Z,5.60
2023-02-11T00:13:32.809Z,5.90
2023-02-11T00:15:59.568Z,6.25
2023-02-11T00:18:26.300Z,4.88
2023-02-11T00:20:53.007Z,5.35
2023-02-11T00:23:19.696Z,6.15
2023-02-11T00:25:46.440Z,5.65
2023-02-11T00:28:13.382Z,5.32
2023-02-11T00:30:40.287Z,5.60
2023-02-11T00:33:07.128Z,5.22
2023-02-11T00:35:33.871Z,5.80
2023-02-11T00:38:00.676Z,7.07
2023-02-11T00:40:27.762Z,5.65
2023-02-11T00:42:54.449Z,6.00
2023-02-11T00:45:21.428Z,6.40
2023-02-11T00:47:48.284Z,6.40
2023-02-11T00:50:15.090Z,4.97
2023-02-11T00:52:43.264Z,5.60
2023-02-11T00:55:10.139Z,5.63
2023-02-11T00:57:37.122Z,6.45
2023-02-11T01:00:05.901Z,5.75
2023-02-11T01:02:32.759Z,6.63
2023-02-11T01:05:00.102Z,5.65
2023-02-11T01:07:28.328Z,5.68
2023-02-11T01:09:55.213Z,6.82
2023-02-11T01:12:23.073Z,5.78
2023-02-11T01:14:49.851Z,6.32
2023-02-11T01:17:16.600Z,4.97
2023-02-11T01:19:43.460Z,6.57
2023-02-11T01:22:10.182Z,6.10
2023-02-11T01:24:36.933Z,5.75
2023-02-11T01:27:03.803Z,5.95
2023-02-11T01:29:30.606Z,6.15
2023-02-11T01:31:57.369Z,6.55
2023-02-11T01:34:24.061Z,5.90
2023-02-11T01:36:50.833Z,5.95
2023-02-11T01:39:17.521Z,6.40
2023-02-11T01:41:44.247Z,6.38
2023-02-11T01:44:37.718Z,6.57
2023-02-11T01:47:06.306Z,6.90
2023-02-11T01:49:38.515Z,7.75
2023-02-11T01:52:35.190Z,7.32
2023-02-11T01:55:27.520Z,6.70
2023-02-11T01:57:59.300Z,7.63
2023-02-11T02:03:22.465Z,6.85
2023-02-11T02:06:15.358Z,7.35
2023-02-11T02:08:53.382Z,7.60
2023-02-11T02:11:20.079Z,6.85
2023-02-11T02:13:46.954Z,7.25
2023-02-11T02:16:17.030Z,7.47
2023-02-11T02:19:05.623Z,7.57
2023-02-11T02:22:05.412Z,7.90
2023-02-11T02:24:32.713Z,7.65
2023-02-11T02:27:44.766Z,7.78
2023-02-11T02:30:40.784Z,7.43
2023-02-11T02:33:30.041Z,7.45
2023-02-11T02:36:27.062Z,8.25
2023-02-11T02:38:59.023Z,7.85
2023-02-11T02:41:30.431Z,7.88
2023-02-11T02:43:57.285Z,8.70
2023-02-11T02:46:30.789Z,7.43
2023-02-11T02:48:58.592Z,6.90
2023-02-11T02:51:43.068Z,7.85
2023-02-11T02:54:28.299Z,7.38
2023-02-11T02:57:09.712Z,7.30
2023-02-11T03:00:09.389Z,8.88
2023-02-11T03:02:42.221Z,8.63
2023-02-11T03:05:27.833Z,8.43
2023-02-11T03:08:16.261Z,7.90
2023-02-11T03:10:49.636Z,7.80
2023-02-11T03:13:19.754Z,9.05
2023-02-11T03:15:52.391Z,9.35
2023-02-11T03:18:24.194Z,8.23
2023-02-11T03:23:30.818Z,8.50
2023-02-11T03:26:08.978Z,8.98
2023-02-11T03:29:15.030Z,8.82
2023-02-11T03:31:54.820Z,8.85
2023-02-11T03:34:37.894Z,9.50
2023-02-11T03:37:25.570Z,9.60
2023-02-11T03:39:58.126Z,10.20
2023-02-11T03:42:29.724Z,8.75
2023-02-11T03:45:04.029Z,9.85
2023-02-11T03:47:34.611Z,10.45
2023-02-11T03:50:04.973Z,10.82
2023-02-11T03:52:33.514Z,10.73
2023-02-11T03:55:03.819Z,12.15
2023-02-11T03:57:30.615Z,10.73
2023-02-11T03:59:59.148Z,10.77
2023-02-11T04:02:30.150Z,10.85
2023-02-11T04:04:57.343Z,11.50
2023-02-11T04:07:24.940Z,11.90
2023-02-11T04:09:52.342Z,10.30
2023-02-11T04:12:19.235Z,11.95
2023-02-11T04:14:45.920Z,10.50
2023-02-11T04:17:13.158Z,11.80
2023-02-11T04:19:39.997Z,12.65
2023-02-11T04:22:07.039Z,12.05
2023-02-11T04:24:34.535Z,12.07
2023-02-11T04:27:01.529Z,12.82
2023-02-11T04:29:28.405Z,13.88
2023-02-11T04:31:56.187Z,12.20
2023-02-11T04:34:23.339Z,12.52
2023-02-11T04:36:52.815Z,13.65
2023-02-11T04:39:19.695Z,14.05
2023-02-11T04:41:46.436Z,14.38
2023-02-11T04:44:13.349Z,14.70
2023-02-11T04:46:40.121Z,15.95
2023-02-11T04:49:07.034Z,16.38
2023-02-11T04:51:33.736Z,15.90
2023-02-11T04:54:00.472Z,15.15
2023-02-11T04:56:27.202Z,15.15
2023-02-11T04:58:53.958Z,15.27
2023-02-11T05:01:20.797Z,15.88
2023-02-11T05:03:47.589Z,16.05
2023-02-11T05:06:14.704Z,17.70
2023-02-11T05:08:41.436Z,17.42
2023-02-11T05:11:14.481Z,17.67
2023-02-11T05:13:41.202Z,19.25
2023-02-11T05:16:07.992Z,18.05
2023-02-11T05:18:37.491Z,19.70
2023-02-11T05:21:22.359Z,20.90
2023-02-11T05:23:49.183Z,21.77
2023-02-11T05:26:16.465Z,21.80
2023-02-11T05:28:44.398Z,21.67
2023-02-11T05:31:12.053Z,23.80
2023-02-11T05:33:38.824Z,23.95
2023-02-11T05:36:08.874Z,28.55
2023-02-11T05:38:36.490Z,32.05
2023-02-11T05:41:04.482Z,31.48
2023-02-11T05:43:31.734Z,30.80
2023-02-11T05:45:58.914Z,26.60
2023-02-11T05:48:25.688Z,24.38
2023-02-11T05:50:52.469Z,25.80
2023-02-11T05:53:19.230Z,25.90
2023-02-11T05:55:46.364Z,24.92
2023-02-11T05:58:13.658Z,25.15
2023-02-11T06:00:40.516Z,26.38
2023-02-11T06:03:08.066Z,26.75
2023-02-11T06:05:34.742Z,26.08
2023-02-11T06:08:01.589Z,27.75
2023-02-11T06:10:28.411Z,27.33
2023-02-11T06:12:55.238Z,27.30
2023-02-11T06:15:22.019Z,27.98
2023-02-11T06:17:48.797Z,28.08
2023-02-11T06:20:15.613Z,30.60
2023-02-11T06:22:42.350Z,28.10
2023-02-11T06:25:09.196Z,27.65
2023-02-11T06:27:35.941Z,29.13
2023-02-11T06:30:03.034Z,29.48
2023-02-11T06:32:42.637Z,29.77
2023-02-11T06:35:12.330Z,28.92
2023-02-11T06:37:40.311Z,30.05
2023-02-11T06:40:07.322Z,28.13
2023-02-11T06:42:36.047Z,30.13
2023-02-11T06:45:03.202Z,29.23
2023-02-11T06:47:29.898Z,29.20
2023-02-11T06:49:56.607Z,27.00
2023-02-11T06:52:23.277Z,28.70
2023-02-11T06:54:49.989Z,29.77
2023-02-11T06:57:16.725Z,29.25
2023-02-11T06:59:44.120Z,29.23
2023-02-11T07:02:10.985Z,29.27
2023-02-11T07:04:37.990Z,29.23
2023-02-11T07:07:04.770Z,30.42
2023-02-11T07:09:31.672Z,29.65
2023-02-11T07:11:58.411Z,30.23
2023-02-11T07:14:25.602Z,31.50
2023-02-11T07:16:52.383Z,29.60
2023-02-11T07:19:19.113Z,30.02
2023-02-11T07:21:45.810Z,27.00
2023-02-11T07:24:13.531Z,29.27
2023-02-11T07:26:40.713Z,29.23
2023-02-11T07:29:07.591Z,29.75
2023-02-11T07:31:34.432Z,29.02
2023-02-11T07:34:02.374Z,29.25
2023-02-11T07:36:31.835Z,28.73
2023-02-11T07:39:00.051Z,30.00
2023-02-11T07:41:27.340Z,29.17
2023-02-11T07:43:54.177Z,28.60
2023-02-11T07:46:23.920Z,29.05
2023-02-11T07:48:51.365Z,30.35
2023-02-11T07:51:24.936Z,28.00
2023-02-11T07:53:52.345Z,30.40
2023-02-11T07:56:20.502Z,30.30
2023-02-11T07:58:47.882Z,30.67
2023-02-11T08:01:20.122Z,30.02
2023-02-11T08:03:46.943Z,29.92
2023-02-11T08:06:15.770Z,29.20
2023-02-11T08:08:42.970Z,28.33
2023-02-11T08:11:21.830Z,27.75
2023-02-11T08:13:49.069Z,29.23
2023-02-11T08:16:22.918Z,28.25
2023-02-11T08:18:51.021Z,27.40
2023-02-11T08:21:18.461Z,27.02
2023-02-11T08:23:46.352Z,25.98
2023-02-11T08:26:16.874Z,26.67
2023-02-11T08:28:45.497Z,27.05
2023-02-11T08:31:24.094Z,27.35
2023-02-11T08:33:51.273Z,25.83
2023-02-11T08:36:21.119Z,25.23
2023-02-11T08:38:48.129Z,25.38
2023-02-11T08:41:16.103Z,23.85
2023-02-11T08:43:44.344Z,22.58
2023-02-11T08:46:17.024Z,22.65
2023-02-11T08:48:45.107Z,22.83
2023-02-11T08:51:17.937Z,23.80
2023-02-11T08:53:45.507Z,22.40
2023-02-11T08:56:13.648Z,22.75
2023-02-11T08:58:41.101Z,22.05
2023-02-11T09:01:12.715Z,20.88
2023-02-11T09:03:40.135Z,21.05
2023-02-11T09:06:09.016Z,19.92
2023-02-11T09:08:37.783Z,18.50
2023-02-11T09:11:04.890Z,19.35
2023-02-11T09:13:32.957Z,19.45
2023-02-11T09:16:01.325Z,18.35
2023-02-11T09:18:28.570Z,18.25
2023-02-11T09:21:06.624Z,18.50
2023-02-11T09:23:34.568Z,16.50
2023-02-11T09:26:09.190Z,17.73
2023-02-11T09:28:36.628Z,16.92
2023-02-11T09:31:08.005Z,16.45
2023-02-11T09:33:35.044Z,16.55
2023-02-11T09:36:03.229Z,16.60
2023-02-11T09:38:30.174Z,17.45
2023-02-11T09:40:58.547Z,16.40
2023-02-11T09:43:33.690Z,16.00
2023-02-11T09:46:00.544Z,15.10
2023-02-11T09:48:27.627Z,16.27
2023-02-11T09:51:00.393Z,14.88
2023-02-11T09:53:29.677Z,14.98
2023-02-11T09:55:59.752Z,14.38
2023-02-11T09:58:35.106Z,13.82
2023-02-11T10:01:22.018Z,14.45
2023-02-11T10:04:06.914Z,13.35
2023-02-11T10:06:51.665Z,14.40
2023-02-11T10:09:46.965Z,13.77
2023-02-11T10:12:19.652Z,13.73
2023-02-11T10:15:14.138Z,13.93
2023-02-11T10:17:55.977Z,15.45
2023-02-11T10:22:55.134Z,14.85
2023-02-11T10:25:24.728Z,15.05
2023-02-11T10:27:54.495Z,15.55
2023-02-11T10:30:34.896Z,15.27
2023-02-11T10:33:06.701Z,17.02
2023-02-11T10:38:00.701Z,15.02
2023-02-11T10:40:30.492Z,15.85
2023-02-11T10:43:05.887Z,16.40
2023-02-11T10:45:47.376Z,16.73
2023-02-11T10:48:49.343Z,15.15
2023-02-11T10:54:19.601Z,15.50
2023-02-11T10:56:52.861Z,15.27
2023-02-11T10:59:40.129Z,16.48
2023-02-11T11:02:32.117Z,16.42
2023-02-11T11:07:29.561Z,16.50
2023-02-11T11:10:02.567Z,15.45
2023-02-11T11:12:31.644Z,16.08
2023-02-11T11:15:26.389Z,16.30
2023-02-11T11:18:28.726Z,16.52
2023-02-11T11:21:24.126Z,15.35
2023-02-11T11:24:02.357Z,16.02
2023-02-11T11:26:41.549Z,16.75
2023-02-11T11:29:13.616Z,15.80
2023-02-11T11:32:11.820Z,15.50
2023-02-11T11:34:41.871Z,16.23
2023-02-11T11:37:19.307Z,16.90
2023-02-11T11:39:59.454Z,16.45
2023-02-11T11:42:32.022Z,16.40
2023-02-11T11:44:59.047Z,16.92
2023-02-11T11:47:38.026Z,17.45
2023-02-11T11:50:42.271Z,16.08
2023-02-11T11:53:20.515Z,16.83
2023-02-11T11:56:02.954Z,16.67
2023-02-11T11:58:31.307Z,17.58
2023-02-11T12:01:22.985Z,16.67
2023-02-11T12:04:17.933Z,17.13
2023-02-11T12:07:08.822Z,16.98
2023-02-11T12:10:09.945Z,16.83
2023-02-11T12:12:44.219Z,15.63
2023-02-11T12:15:27.640Z,16.45
2023-02-11T12:20:36.813Z,15.15
2023-02-11T12:23:33.560Z,16.08
2023-02-11T12:26:22.076Z,15.13
2023-02-11T12:29:00.757Z,16.08
2023-02-11T12:31:53.962Z,14.80
2023-02-11T12:34:54.666Z,15.45
2023-02-11T12:37:27.258Z,14.65
2023-02-11T12:40:16.478Z,15.50
2023-02-11T12:43:18.356Z,15.10
2023-02-11T12:45:57.902Z,14.25
2023-02-11T12:48:45.773Z,14.90
2023-02-11T12:51:15.262Z,14.07
2023-02-11T12:54:00.119Z,13.50
2023-02-11T12:56:49.829Z,12.45
2023-02-11T12:59:28.503Z,12.98
2023-02-11T13:01:57.124Z,11.75
2023-02-11T13:04:40.250Z,12.40
2023-02-11T13:07:25.969Z,10.57
2023-02-11T13:10:05.067Z,10.40
2023-02-11T13:12:52.021Z,11.60
2023-02-11T13:15:18.905Z,11.07
2023-02-11T13:17:58.130Z,9.55
2023-02-11T13:20:43.325Z,9.00
2023-02-11T13:23:30.564Z,9.63
2023-02-11T13:26:02.526Z,8.60
2023-02-11T13:28:50.191Z,9.48
2023-02-11T13:31:20.173Z,8.73
2023-02-11T13:33:49.876Z,8.02
2023-02-11T13:36:19.669Z,8.55
2023-02-11T13:39:01.768Z,7.50
2023-02-11T13:41:36.359Z,7.88
2023-02-11T13:44:26.623Z,7.72
2023-02-11T13:47:01.499Z,7.80
2023-02-11T13:49:41.361Z,7.90
2023-02-11T13:52:32.079Z,7.47
2023-02-11T13:55:09.705Z,7.82
2023-02-11T13:57:38.915Z,7.13
2023-02-11T14:00:33.604Z,7.13
2023-02-11T14:03:31.317Z,7.07
2023-02-11T14:06:40.969Z,7.32
2023-02-11T14:09:11.415Z,7.00
2023-02-11T14:11:49.026Z,6.75
2023-02-11T14:14:23.765Z,6.40
2023-02-11T14:17:02.408Z,6.65
2023-02-11T14:19:43.794Z,6.70
2023-02-11T14:22:11.783Z,6.82
2023-02-11T14:24:38.405Z,6.60
2023-02-11T14:27:10.855Z,6.90
2023-02-11T14:29:42.376Z,7.47
2023-02-11T14:32:26.961Z,6.80
2023-02-11T14:35:03.299Z,6.72
2023-02-11T14:37:57.085Z,6.50
2023-02-11T14:40:30.788Z,6.40
2023-02-11T14:43:03.185Z,7.38
2023-02-11T14:45:31.083Z,7.38
2023-02-11T14:48:08.220Z,6.53
2023-02-11T14:50:46.783Z,6.40
2023-02-11T14:53:17.858Z,6.85
2023-02-11T14:55:48.228Z,6.53
2023-02-11T14:58:28.296Z,6.82
2023-02-11T15:01:22.973Z,6.72
2023-02-11T15:03:50.085Z,6.50
2023-02-11T15:06:21.318Z,6.43
2023-02-11T15:09:00.888Z,6.93
2023-02-11T15:11:30.807Z,6.85
2023-02-11T15:14:01.778Z,6.38
2023-02-11T15:16:29.226Z,6.93
2023-02-11T15:19:02.516Z,6.43
2023-02-11T15:21:31.087Z,7.03
2023-02-11T15:24:00.895Z,5.80
2023-02-11T15:26:29.370Z,7.15
2023-02-11T15:28:56.212Z,6.25
2023-02-11T15:31:25.448Z,6.40
2023-02-11T15:33:53.518Z,6.97
2023-02-11T15:36:28.353Z,5.97
2023-02-11T15:39:31.467Z,6.57
2023-02-11T15:42:16.735Z,6.60
2023-02-11T15:44:43.798Z,6.38
2023-02-11T15:47:19.588Z,6.80
2023-02-11T15:49:47.831Z,6.40
2023-02-11T15:52:21.896Z,6.45
2023-02-11T15:54:49.327Z,6.68
2023-02-11T15:57:17.823Z,6.45
2023-02-11T15:59:53.334Z,6.35
2023-02-11T16:02:34.908Z,6.68
2023-02-11T16:05:08.879Z,7.43
2023-02-11T16:07:38.487Z,6.93
2023-02-11T16:10:15.803Z,7.63
2023-02-11T16:13:13.596Z,7.30
2023-02-11T16:15:46.810Z,6.75
2023-02-11T16:18:38.311Z,6.60
2023-02-11T16:21:12.245Z,7.18
2023-02-11T16:23:44.491Z,6.90
2023-02-11T16:26:34.639Z,6.88
2023-02-11T16:29:10.546Z,7.18
2023-02-11T16:31:40.793Z,7.60
2023-02-11T16:34:21.621Z,6.95
2023-02-11T16:36:49.430Z,6.97
2023-02-11T16:39:17.588Z,6.90
2023-02-11T16:41:44.519Z,7.28
2023-02-11T16:44:11.227Z,7.18
2023-02-11T16:46:38.369Z,7.00
2023-02-11T16:49:20.317Z,7.10
2023-02-11T16:54:16.375Z,7.97
2023-02-11T16:56:44.059Z,7.30
2023-02-11T16:59:10.794Z,7.63
2023-02-11T17:01:40.194Z,8.30
2023-02-11T17:04:10.644Z,8.70
2023-02-11T17:06:37.476Z,8.43
2023-02-11T17:09:06.445Z,8.45
2023-02-11T17:11:33.110Z,7.93
2023-02-11T17:13:59.995Z,8.45
2023-02-11T17:16:30.097Z,8.02
2023-02-11T17:18:56.978Z,6.72
2023-02-11T17:21:27.560Z,7.72
2023-02-11T17:23:55.540Z,8.00
2023-02-11T17:26:22.225Z,8.20
2023-02-11T17:28:48.923Z,8.00
2023-02-11T17:31:16.026Z,8.43
2023-02-11T17:33:43.208Z,8.88
2023-02-11T17:36:10.755Z,8.85
2023-02-11T17:38:38.018Z,8.35
2023-02-11T17:41:05.384Z,8.25
2023-02-11T17:43:32.483Z,8.07
2023-02-11T17:45:59.285Z,8.68
2023-02-11T17:48:26.183Z,8.60
2023-02-11T17:50:52.854Z,9.27
2023-02-11T17:53:19.567Z,8.88
2023-02-11T17:55:46.284Z,8.70
2023-02-11T17:58:13.057Z,8.45
2023-02-11T18:00:39.929Z,8.95
2023-02-11T18:03:06.754Z,8.05
2023-02-11T18:05:37.372Z,8.80
2023-02-11T18:08:06.162Z,9.43
2023-02-11T18:10:33.807Z,8.63
2023-02-11T18:13:01.308Z,8.90
2023-02-11T18:15:28.154Z,9.48
2023-02-11T18:17:55.827Z,9.23
2023-02-11T18:20:22.526Z,8.50
2023-02-11T18:22:49.292Z,9.40
2023-02-11T18:25:16.317Z,8.80
2023-02-11T18:27:43.163Z,8.40
2023-02-11T18:30:15.785Z,8.65
2023-02-11T18:32:43.327Z,8.25
2023-02-11T18:35:14.777Z,9.18
2023-02-11T18:40:10.605Z,9.25
2023-02-11T18:42:37.480Z,8.77
2023-02-11T18:45:07.051Z,9.23
2023-02-11T18:47:33.848Z,9.52
2023-02-11T18:50:00.775Z,9.25
2023-02-11T18:52:27.485Z,9.40
2023-02-11T18:54:54.160Z,9.18
2023-02-11T18:57:20.910Z,10.00
2023-02-11T18:59:49.014Z,9.90
2023-02-11T19:02:15.892Z,9.95
2023-02-11T19:04:42.762Z,10.60
2023-02-11T19:07:09.524Z,10.35
2023-02-11T19:09:36.846Z,10.60
2023-02-11T19:12:04.615Z,10.45
2023-02-11T19:14:34.186Z,9.70
2023-02-11T19:17:04.696Z,10.43
2023-02-11T19:19:34.641Z,9.95
2023-02-11T19:22:02.646Z,11.10
2023-02-11T19:24:30.342Z,11.32
2023-02-11T19:27:00.069Z,9.88
2023-02-11T19:29:27.486Z,10.50
2023-02-11T19:31:55.084Z,9.68
2023-02-11T19:34:22.530Z,9.52
2023-02-11T19:36:50.465Z,9.25
2023-02-11T19:39:18.460Z,9.45
2023-02-11T19:41:45.371Z,9.52
2023-02-11T19:44:13.860Z,8.52
2023-02-11T19:46:40.913Z,8.98
2023-02-11T19:49:08.234Z,10.02
2023-02-11T19:51:37.335Z,9.70
2023-02-11T19:54:04.249Z,9.55
2023-02-11T19:56:31.047Z,9.57
2023-02-11T19:58:58.103Z,10.85
2023-02-11T20:01:25.826Z,9.88
2023-02-11T20:03:54.151Z,8.90
2023-02-11T20:06:29.988Z,9.30
2023-02-11T20:09:02.602Z,11.63
2023-02-11T20:11:31.153Z,9.98
2023-02-11T20:13:58.733Z,11.05
2023-02-11T20:16:40.990Z,10.40
2023-02-11T20:19:17.595Z,9.50
2023-02-11T20:21:47.070Z,10.55
2023-02-11T20:24:14.753Z,9.23
2023-02-11T20:26:42.379Z,10.02
2023-02-11T20:29:09.467Z,9.73
2023-02-11T20:31:36.761Z,9.80
2023-02-11T20:34:04.002Z,10.13
2023-02-11T20:36:34.156Z,10.10
2023-02-11T20:39:01.874Z,10.82
2023-02-11T20:41:34.546Z,10.50
2023-02-11T20:44:05.412Z,9.70
2023-02-11T20:46:34.046Z,9.60
2023-02-11T20:49:01.510Z,9.90
2023-02-11T20:51:31.054Z,10.25
2023-02-11T20:53:58.531Z,10.38
2023-02-11T20:56:31.875Z,10.63
2023-02-11T20:59:00.018Z,10.55
2023-02-11T21:01:33.256Z,10.57
2023-02-11T21:04:02.940Z,10.20
2023-02-11T21:06:38.428Z,10.05
2023-02-11T21:09:07.629Z,10.25
2023-02-11T21:11:34.906Z,10.32
2023-02-11T21:14:02.536Z,10.20
2023-02-11T21:16:29.467Z,9.88
2023-02-11T21:18:56.929Z,10.98
2023-02-11T21:21:24.094Z,11.02
2023-02-11T21:23:50.880Z,10.18
2023-02-11T21:26:17.843Z,10.90
2023-02-11T21:28:45.034Z,10.70
2023-02-11T21:31:21.937Z,11.30
2023-02-11T21:33:50.201Z,11.05
2023-02-11T21:36:17.633Z,11.52
2023-02-11T21:38:44.542Z,11.25
2023-02-11T21:41:11.700Z,12.02
2023-02-11T21:43:38.532Z,11.93
2023-02-11T21:46:15.688Z,12.20
2023-02-11T21:48:43.062Z,10.73
2023-02-11T21:51:13.870Z,10.80
2023-02-11T21:53:40.604Z,11.50
2023-02-11T21:56:16.150Z,11.10
2023-02-11T21:58:43.552Z,11.23
2023-02-11T22:01:19.204Z,10.55
2023-02-11T22:03:46.726Z,11.48
2023-02-11T22:06:16.735Z,11.38
2023-02-11T22:08:43.950Z,11.75
2023-02-11T22:11:13.378Z,12.00
2023-02-11T22:13:41.076Z,10.98
2023-02-11T22:16:10.446Z,11.93
2023-02-11T22:18:38.134Z,12.00
2023-02-11T22:21:07.863Z,11.75
2023-02-11T22:23:35.324Z,11.70
2023-02-11T22:26:07.347Z,12.07
2023-02-11T22:28:35.430Z,12.30
2023-02-11T22:31:02.384Z,12.25
2023-02-11T22:33:29.427Z,11.60
2023-02-11T22:36:04.582Z,12.77
2023-02-11T22:38:32.942Z,12.20
2023-02-11T22:41:00.654Z,12.10
2023-02-11T22:43:28.148Z,11.95
2023-02-11T22:45:56.402Z,12.35
2023-02-11T22:48:23.464Z,12.60
2023-02-11T22:50:50.207Z,12.35
2023-02-11T22:53:16.940Z,12.52
2023-02-11T22:55:43.627Z,12.60
2023-02-11T22:58:10.914Z,12.15
2023-02-11T23:00:40.770Z,12.77
2023-02-11T23:03:08.816Z,12.05
2023-02-11T23:05:42.111Z,12.20
2023-02-11T23:08:10.454Z,11.90
2023-02-11T23:10:39.138Z,11.30
2023-02-11T23:13:07.256Z,11.80
2023-02-11T23:15:38.401Z,11.48
2023-02-11T23:18:05.416Z,11.38
2023-02-11T23:20:35.056Z,11.88
2023-02-11T23:23:02.399Z,11.57
2023-02-11T23:25:29.832Z,12.25
2023-02-11T23:27:56.868Z,11.50
2023-02-11T23:30:24.074Z,10.82
2023-02-11T23:32:51.487Z,11.45
2023-02-11T23:35:24.972Z,11.20
2023-02-11T23:37:52.820Z,11.48
2023-02-11T23:40:20.990Z,11.02
2023-02-11T23:42:49.006Z,10.98
2023-02-11T23:45:15.833Z,12.55
2023-02-11T23:47:42.594Z,12.57
2023-02-11T23:50:10.030Z,12.15
2023-02-11T23:52:37.110Z,12.27
2023-02-11T23:55:04.202Z,11.32
2023-02-11T23:57:34.612Z,13.20
